createdAt,value
2018-12-30T00:00:56.529Z,1002.60
2018-12-30T00:01:56.518Z,1002.56
2018-12-30T00:02:56.508Z,1002.62
2018-12-30T00:03:56.552Z,1002.57
2018-12-30T00:04:56.483Z,1002.60
2018-12-30T00:05:56.473Z,1002.66
2018-12-30T00:06:56.473Z,1002.62
2018-12-30T00:07:56.450Z,1002.65
2018-12-30T00:08:56.464Z,1002.62
2018-12-30T00:09:56.429Z,1002.70
2018-12-30T00:10:56.426Z,1002.71
2018-12-30T00:11:56.406Z,1002.71
2018-12-30T00:12:56.397Z,1002.70
2018-12-30T00:13:56.407Z,1002.77
2018-12-30T00:14:56.374Z,1002.80
2018-12-30T00:15:56.363Z,1002.82
2018-12-30T00:16:56.359Z,1002.72
2018-12-30T00:17:56.364Z,1002.72
2018-12-30T00:18:56.331Z,1002.69
2018-12-30T00:19:56.345Z,1002.71
2018-12-30T00:20:56.307Z,1002.76
2018-12-30T00:21:56.295Z,1002.74
2018-12-30T00:22:56.319Z,1002.72
2018-12-30T00:23:56.273Z,1002.73
2018-12-30T00:24:56.303Z,1002.63
2018-12-30T00:25:56.255Z,1002.67
2018-12-30T00:26:56.242Z,1002.70
2018-12-30T00:27:56.233Z,1002.62
2018-12-30T00:28:56.226Z,1002.71
2018-12-30T00:29:56.230Z,1002.69
2018-12-30T00:30:56.195Z,1002.72
2018-12-30T00:31:56.185Z,1002.64
2018-12-30T00:32:56.201Z,1002.69
2018-12-30T00:33:56.166Z,1002.65
2018-12-30T00:34:56.152Z,1002.67
2018-12-30T00:35:56.181Z,1002.66
2018-12-30T00:36:56.168Z,1002.69
2018-12-30T00:37:56.123Z,1002.62
2018-12-30T00:38:56.107Z,1002.63
2018-12-30T00:39:56.125Z,1002.73
2018-12-30T00:40:56.084Z,1002.71
2018-12-30T00:41:56.078Z,1002.78
2018-12-30T00:42:56.097Z,1002.77
2018-12-30T00:43:56.054Z,1002.75
2018-12-30T00:44:56.044Z,1002.82
2018-12-30T00:45:56.060Z,1002.77
2018-12-30T00:46:56.023Z,1002.84
2018-12-30T00:47:56.008Z,1002.74
2018-12-30T00:48:56.012Z,1002.82
2018-12-30T00:49:56.010Z,1002.82
2018-12-30T00:50:55.975Z,1002.79
2018-12-30T00:51:55.967Z,1002.89
2018-12-30T00:52:55.953Z,1002.84
2018-12-30T00:53:55.977Z,1002.85
2018-12-30T00:54:55.940Z,1002.85
2018-12-30T00:55:55.919Z,1002.90
2018-12-30T00:56:55.911Z,1002.88
2018-12-30T00:57:55.898Z,1002.85
2018-12-30T00:58:55.911Z,1002.93
2018-12-30T00:59:55.877Z,1002.88
2018-12-30T01:00:55.885Z,1002.94
2018-12-30T01:01:55.853Z,1002.90
2018-12-30T01:02:55.857Z,1002.97
2018-12-30T01:03:55.857Z,1002.91
2018-12-30T01:04:55.820Z,1003.00
2018-12-30T01:05:55.810Z,1003.04
2018-12-30T01:06:55.810Z,1003.03
2018-12-30T01:07:55.813Z,1003.04
2018-12-30T01:08:55.802Z,1003.12
2018-12-30T01:09:55.768Z,1003.09
2018-12-30T01:10:55.780Z,1003.00
2018-12-30T01:11:55.743Z,1003.17
2018-12-30T01:12:55.760Z,1003.17
2018-12-30T01:13:55.723Z,1003.15
2018-12-30T01:14:55.733Z,1003.22
2018-12-30T01:15:55.722Z,1003.16
2018-12-30T01:16:55.704Z,1003.24
2018-12-30T01:17:55.675Z,1003.33
2018-12-30T01:18:55.678Z,1003.27
2018-12-30T01:19:55.654Z,1003.20
2018-12-30T01:20:55.670Z,1003.31
2018-12-30T01:21:55.632Z,1003.32
2018-12-30T01:22:55.620Z,1003.36
2018-12-30T01:23:55.609Z,1003.37
2018-12-30T01:24:55.624Z,1003.35
2018-12-30T01:25:55.614Z,1003.34
2018-12-30T01:26:55.575Z,1003.35
2018-12-30T01:27:55.566Z,1003.34
2018-12-30T01:28:55.556Z,1003.37
2018-12-30T01:29:55.543Z,1003.40
2018-12-30T01:30:55.595Z,1003.53
2018-12-30T01:31:55.521Z,1003.50
2018-12-30T01:32:55.512Z,1003.47
2018-12-30T01:33:55.499Z,1003.50
2018-12-30T01:34:55.488Z,1003.50
2018-12-30T01:35:55.499Z,1003.53
2018-12-30T01:36:55.471Z,1003.58
2018-12-30T01:37:55.488Z,1003.58
2018-12-30T01:38:55.444Z,1003.61
2018-12-30T01:39:55.432Z,1003.57
2018-12-30T01:40:55.421Z,1003.64
2018-12-30T01:41:55.410Z,1003.70
2018-12-30T01:42:55.438Z,1003.66
2018-12-30T01:43:55.387Z,1003.62
2018-12-30T01:44:55.376Z,1003.63
2018-12-30T01:45:55.366Z,1003.69
2018-12-30T01:46:55.359Z,1003.73
2018-12-30T01:47:55.367Z,1003.69
2018-12-30T01:48:55.339Z,1003.68
2018-12-30T01:49:55.321Z,1003.74
2018-12-30T01:50:55.311Z,1003.76
2018-12-30T01:51:55.302Z,1003.77
2018-12-30T01:52:55.313Z,1003.78
2018-12-30T01:53:55.279Z,1003.80
2018-12-30T01:54:55.306Z,1003.81
2018-12-30T01:55:55.255Z,1003.86
2018-12-30T01:56:55.243Z,1003.87
2018-12-30T01:57:55.233Z,1003.89
2018-12-30T01:58:55.248Z,1003.93
2018-12-30T01:59:55.210Z,1003.95
2018-12-30T02:00:55.214Z,1003.92
2018-12-30T02:01:55.214Z,1003.97
2018-12-30T02:02:55.179Z,1003.92
2018-12-30T02:03:55.188Z,1003.97
2018-12-30T02:04:55.182Z,1003.98
2018-12-30T02:05:55.146Z,1004.01
2018-12-30T02:06:55.148Z,1004.06
2018-12-30T02:07:55.137Z,1004.09
2018-12-30T02:08:55.114Z,1004.09
2018-12-30T02:09:55.122Z,1004.08
2018-12-30T02:10:55.091Z,1004.21
2018-12-30T02:11:55.081Z,1004.13
2018-12-30T02:12:55.090Z,1004.13
2018-12-30T02:13:55.071Z,1004.23
2018-12-30T02:14:55.046Z,1004.20
2018-12-30T02:15:55.058Z,1004.24
2018-12-30T02:16:55.023Z,1004.29
2018-12-30T02:17:55.011Z,1004.26
2018-12-30T02:18:55.008Z,1004.29
2018-12-30T02:19:55.021Z,1004.34
2018-12-30T02:20:54.980Z,1004.31
2018-12-30T02:21:54.968Z,1004.35
2018-12-30T02:22:54.956Z,1004.37
2018-12-30T02:23:54.945Z,1004.34
2018-12-30T02:24:54.980Z,1004.47
2018-12-30T02:25:54.922Z,1004.48
2018-12-30T02:26:54.912Z,1004.57
2018-12-30T02:27:54.906Z,1004.65
2018-12-30T02:28:54.890Z,1004.59
2018-12-30T02:29:54.913Z,1004.71
2018-12-30T02:30:54.885Z,1004.77
2018-12-30T02:31:54.860Z,1004.75
2018-12-30T02:32:54.846Z,1004.82
2018-12-30T02:33:54.833Z,1004.85
2018-12-30T02:34:54.846Z,1004.82
2018-12-30T02:35:54.815Z,1004.86
2018-12-30T02:36:54.812Z,1004.83
2018-12-30T02:37:54.814Z,1004.88
2018-12-30T02:38:54.873Z,1004.90
2018-12-30T02:39:54.769Z,1004.87
2018-12-30T02:40:54.757Z,1004.97
2018-12-30T02:41:54.747Z,1004.95
2018-12-30T02:42:54.791Z,1005.02
2018-12-30T02:43:54.725Z,1005.06
2018-12-30T02:44:54.714Z,1005.09
2018-12-30T02:45:54.701Z,1005.15
2018-12-30T02:46:54.690Z,1005.14
2018-12-30T02:47:54.702Z,1005.23
2018-12-30T02:48:54.697Z,1005.23
2018-12-30T02:49:54.699Z,1005.13
2018-12-30T02:50:54.646Z,1005.21
2018-12-30T02:51:54.635Z,1005.22
2018-12-30T02:52:54.634Z,1005.26
2018-12-30T02:53:54.635Z,1005.25
2018-12-30T02:54:54.614Z,1005.22
2018-12-30T02:55:54.589Z,1005.27
2018-12-30T02:56:54.591Z,1005.30
2018-12-30T02:57:54.568Z,1005.35
2018-12-30T02:58:54.590Z,1005.36
2018-12-30T02:59:54.549Z,1005.35
2018-12-30T03:00:54.545Z,1005.47
2018-12-30T03:01:54.525Z,1005.47
2018-12-30T03:02:54.512Z,1005.50
2018-12-30T03:03:54.519Z,1005.52
2018-12-30T03:04:54.516Z,1005.62
2018-12-30T03:05:54.487Z,1005.60
2018-12-30T03:06:54.480Z,1005.69
2018-12-30T03:07:54.471Z,1005.66
2018-12-30T03:08:54.470Z,1005.62
2018-12-30T03:09:54.435Z,1005.71
2018-12-30T03:10:54.425Z,1005.72
2018-12-30T03:11:54.413Z,1005.72
2018-12-30T03:12:54.414Z,1005.73
2018-12-30T03:13:54.418Z,1005.68
2018-12-30T03:14:54.381Z,1005.77
2018-12-30T03:15:54.371Z,1005.73
2018-12-30T03:16:54.382Z,1005.72
2018-12-30T03:17:54.350Z,1005.69
2018-12-30T03:18:54.350Z,1005.73
2018-12-30T03:19:54.347Z,1005.86
2018-12-30T03:20:54.341Z,1005.80
2018-12-30T03:21:59.140Z,1005.80
2018-12-30T03:22:55.291Z,1005.82
2018-12-30T03:23:54.304Z,1005.83
2018-12-30T03:24:54.299Z,1005.88
2018-12-30T03:25:54.283Z,1005.92
2018-12-30T03:26:54.251Z,1005.84
2018-12-30T03:27:54.241Z,1005.92
2018-12-30T03:28:54.226Z,1005.96
2018-12-30T03:29:54.214Z,1005.92
2018-12-30T03:30:54.256Z,1006.05
2018-12-30T03:31:54.194Z,1006.07
2018-12-30T03:32:54.185Z,1006.12
2018-12-30T03:33:54.172Z,1006.14
2018-12-30T03:34:54.190Z,1006.11
2018-12-30T03:35:54.172Z,1006.07
2018-12-30T03:36:54.149Z,1006.09
2018-12-30T03:37:54.157Z,1006.24
2018-12-30T03:38:54.145Z,1006.17
2018-12-30T03:39:54.109Z,1006.18
2018-12-30T03:40:54.093Z,1006.14
2018-12-30T03:41:54.083Z,1006.13
2018-12-30T03:42:54.082Z,1006.19
2018-12-30T03:43:54.087Z,1006.17
2018-12-30T03:44:54.049Z,1006.17
2018-12-30T03:45:54.038Z,1006.16
2018-12-30T03:46:54.057Z,1006.19
2018-12-30T03:47:54.021Z,1006.21
2018-12-30T03:48:54.022Z,1006.17
2018-12-30T03:49:53.994Z,1006.21
2018-12-30T03:50:53.983Z,1006.25
2018-12-30T03:51:54.005Z,1006.30
2018-12-30T03:52:53.963Z,1006.33
2018-12-30T03:53:53.975Z,1006.33
2018-12-30T03:54:53.983Z,1006.34
2018-12-30T03:55:53.934Z,1006.38
2018-12-30T03:56:53.918Z,1006.41
2018-12-30T03:57:53.984Z,1006.38
2018-12-30T03:58:53.897Z,1006.40
2018-12-30T03:59:53.906Z,1006.40
2018-12-30T04:00:53.882Z,1006.39
2018-12-30T04:01:53.862Z,1006.44
2018-12-30T04:02:53.854Z,1006.48
2018-12-30T04:03:53.839Z,1006.47
2018-12-30T04:04:53.849Z,1006.43
2018-12-30T04:05:53.838Z,1006.49
2018-12-30T04:06:53.835Z,1006.51
2018-12-30T04:07:53.796Z,1006.53
2018-12-30T04:08:53.784Z,1006.53
2018-12-30T04:09:53.773Z,1006.57
2018-12-30T04:10:53.765Z,1006.58
2018-12-30T04:11:53.794Z,1006.62
2018-12-30T04:12:53.744Z,1006.72
2018-12-30T04:13:53.730Z,1006.74
2018-12-30T04:14:53.725Z,1006.65
2018-12-30T04:15:53.711Z,1006.74
2018-12-30T04:16:53.721Z,1006.68
2018-12-30T04:17:53.706Z,1006.75
2018-12-30T04:18:53.676Z,1006.79
2018-12-30T04:19:53.769Z,1006.80
2018-12-30T04:20:53.652Z,1006.89
2018-12-30T04:21:53.663Z,1006.81
2018-12-30T04:22:53.664Z,1006.84
2018-12-30T04:23:53.632Z,1006.92
2018-12-30T04:24:53.607Z,1006.81
2018-12-30T04:25:53.645Z,1006.83
2018-12-30T04:26:53.586Z,1006.80
2018-12-30T04:27:53.575Z,1006.82
2018-12-30T04:28:53.565Z,1006.90
2018-12-30T04:29:53.585Z,1006.84
2018-12-30T04:30:53.570Z,1006.85
2018-12-30T04:31:53.530Z,1006.96
2018-12-30T04:32:53.543Z,1007.02
2018-12-30T04:33:53.508Z,1006.92
2018-12-30T04:34:53.499Z,1006.95
2018-12-30T04:35:53.499Z,1006.94
2018-12-30T04:36:53.482Z,1006.94
2018-12-30T04:37:53.488Z,1006.98
2018-12-30T04:38:53.470Z,1006.98
2018-12-30T04:39:53.442Z,1007.01
2018-12-30T04:40:53.433Z,1006.99
2018-12-30T04:41:53.439Z,1006.96
2018-12-30T04:42:53.426Z,1007.03
2018-12-30T04:43:53.405Z,1007.08
2018-12-30T04:44:53.910Z,1007.09
2018-12-30T04:45:53.381Z,1007.13
2018-12-30T04:46:53.386Z,1007.15
2018-12-30T04:47:53.374Z,1007.13
2018-12-30T04:48:53.343Z,1007.16
2018-12-30T04:49:53.334Z,1007.26
2018-12-30T04:50:53.322Z,1007.21
2018-12-30T04:51:53.336Z,1007.21
2018-12-30T04:52:53.300Z,1007.24
2018-12-30T04:53:53.331Z,1007.18
2018-12-30T04:54:53.302Z,1007.23
2018-12-30T04:55:53.266Z,1007.25
2018-12-30T04:56:53.255Z,1007.29
2018-12-30T04:57:53.247Z,1007.29
2018-12-30T04:58:53.258Z,1007.36
2018-12-30T04:59:53.229Z,1007.39
2018-12-30T05:00:53.212Z,1007.43
2018-12-30T05:01:53.223Z,1007.42
2018-12-30T05:02:53.190Z,1007.47
2018-12-30T05:03:53.179Z,1007.53
2018-12-30T05:04:53.166Z,1007.54
2018-12-30T05:05:53.209Z,1007.54
2018-12-30T05:06:53.145Z,1007.59
2018-12-30T05:07:53.133Z,1007.56
2018-12-30T05:08:53.126Z,1007.64
2018-12-30T05:09:53.112Z,1007.60
2018-12-30T05:10:53.130Z,1007.64
2018-12-30T05:11:53.121Z,1007.62
2018-12-30T05:12:53.081Z,1007.68
2018-12-30T05:13:53.068Z,1007.65
2018-12-30T05:14:53.119Z,1007.67
2018-12-30T05:15:53.047Z,1007.68
2018-12-30T05:16:53.036Z,1007.74
2018-12-30T05:17:53.052Z,1007.77
2018-12-30T05:18:53.012Z,1007.79
2018-12-30T05:19:53.024Z,1007.78
2018-12-30T05:20:52.993Z,1007.76
2018-12-30T05:21:52.979Z,1007.81
2018-12-30T05:22:53.003Z,1007.78
2018-12-30T05:23:52.975Z,1007.85
2018-12-30T05:24:52.947Z,1007.91
2018-12-30T05:25:52.938Z,1007.91
2018-12-30T05:26:52.927Z,1007.90
2018-12-30T05:27:52.946Z,1007.90
2018-12-30T05:28:52.904Z,1007.94
2018-12-30T05:29:52.907Z,1007.97
2018-12-30T05:30:52.882Z,1007.96
2018-12-30T05:31:52.870Z,1007.99
2018-12-30T05:32:52.887Z,1008.00
2018-12-30T05:33:52.848Z,1007.99
2018-12-30T05:34:52.837Z,1008.09
2018-12-30T05:35:52.827Z,1008.01
2018-12-30T05:36:52.849Z,1008.05
2018-12-30T05:37:52.804Z,1008.09
2018-12-30T05:38:52.792Z,1008.15
2018-12-30T05:39:52.811Z,1008.16
2018-12-30T05:40:52.771Z,1008.15
2018-12-30T05:41:52.780Z,1008.17
2018-12-30T05:42:52.757Z,1008.15
2018-12-30T05:43:52.763Z,1008.22
2018-12-30T05:44:52.729Z,1008.20
2018-12-30T05:45:52.716Z,1008.28
2018-12-30T05:46:52.708Z,1008.22
2018-12-30T05:47:52.743Z,1008.21
2018-12-30T05:48:52.709Z,1008.25
2018-12-30T05:49:52.681Z,1008.28
2018-12-30T05:50:52.707Z,1008.30
2018-12-30T05:51:52.690Z,1008.32
2018-12-30T05:52:52.638Z,1008.30
2018-12-30T05:53:52.654Z,1008.33
2018-12-30T05:54:52.627Z,1008.39
2018-12-30T05:55:52.642Z,1008.36
2018-12-30T05:56:52.595Z,1008.39
2018-12-30T05:57:52.610Z,1008.44
2018-12-30T05:58:52.587Z,1008.42
2018-12-30T05:59:52.585Z,1008.43
2018-12-30T06:00:52.553Z,1008.46
2018-12-30T06:01:52.566Z,1008.46
2018-12-30T06:02:52.525Z,1008.47
2018-12-30T06:03:52.541Z,1008.49
2018-12-30T06:04:52.505Z,1008.49
2018-12-30T06:05:52.513Z,1008.59
2018-12-30T06:06:52.513Z,1008.55
2018-12-30T06:07:52.494Z,1008.59
2018-12-30T06:08:52.466Z,1008.56
2018-12-30T06:09:52.490Z,1008.56
2018-12-30T06:10:52.445Z,1008.53
2018-12-30T06:11:52.451Z,1008.54
2018-12-30T06:12:52.422Z,1008.53
2018-12-30T06:13:52.408Z,1008.57
2018-12-30T06:14:52.404Z,1008.64
2018-12-30T06:15:52.406Z,1008.71
2018-12-30T06:16:52.374Z,1008.73
2018-12-30T06:17:52.392Z,1008.64
2018-12-30T06:18:52.359Z,1008.70
2018-12-30T06:19:52.347Z,1008.73
2018-12-30T06:20:52.354Z,1008.69
2018-12-30T06:21:52.314Z,1008.68
2018-12-30T06:22:52.306Z,1008.61
2018-12-30T06:23:52.300Z,1008.67
2018-12-30T06:24:52.303Z,1008.72
2018-12-30T06:25:52.300Z,1008.71
2018-12-30T06:26:52.263Z,1008.72
2018-12-30T06:27:52.275Z,1008.73
2018-12-30T06:28:52.243Z,1008.78
2018-12-30T06:29:52.686Z,1008.74
2018-12-30T06:30:52.217Z,1008.78
2018-12-30T06:31:52.209Z,1008.79
2018-12-30T06:32:52.268Z,1008.75
2018-12-30T06:33:52.189Z,1008.88
2018-12-30T06:34:52.253Z,1008.90
2018-12-30T06:35:52.162Z,1008.90
2018-12-30T06:36:52.151Z,1008.91
2018-12-30T06:37:52.174Z,1008.85
2018-12-30T06:38:52.133Z,1008.87
2018-12-30T06:39:52.155Z,1008.95
2018-12-30T06:40:52.110Z,1008.98
2018-12-30T06:41:52.100Z,1009.00
2018-12-30T06:42:52.086Z,1008.95
2018-12-30T06:43:52.077Z,1008.94
2018-12-30T06:44:52.129Z,1008.98
2018-12-30T06:45:52.056Z,1009.06
2018-12-30T06:46:52.047Z,1009.07
2018-12-30T06:47:52.030Z,1008.96
2018-12-30T06:48:52.040Z,1009.08
2018-12-30T06:49:52.038Z,1008.95
2018-12-30T06:50:51.997Z,1009.02
2018-12-30T06:51:52.005Z,1009.07
2018-12-30T06:52:57.530Z,1009.01
2018-12-30T06:53:52.978Z,1008.99
2018-12-30T06:54:51.979Z,1009.04
2018-12-30T06:55:51.979Z,1009.07
2018-12-30T06:56:51.949Z,1009.07
2018-12-30T06:57:52.014Z,1009.10
2018-12-30T06:58:51.905Z,1009.08
2018-12-30T06:59:51.898Z,1009.10
2018-12-30T07:00:51.886Z,1009.09
2018-12-30T07:01:51.910Z,1009.09
2018-12-30T07:02:51.872Z,1009.10
2018-12-30T07:03:51.875Z,1009.03
2018-12-30T07:04:51.874Z,1009.12
2018-12-30T07:05:51.833Z,1009.17
2018-12-30T07:06:51.818Z,1009.08
2018-12-30T07:07:51.815Z,1009.10
2018-12-30T07:08:51.832Z,1009.16
2018-12-30T07:09:51.816Z,1009.21
2018-12-30T07:10:51.776Z,1009.14
2018-12-30T07:11:51.767Z,1009.13
2018-12-30T07:12:51.770Z,1009.20
2018-12-30T07:13:51.752Z,1009.21
2018-12-30T07:14:51.773Z,1009.24
2018-12-30T07:15:51.726Z,1009.23
2018-12-30T07:16:51.712Z,1009.28
2018-12-30T07:17:51.701Z,1009.27
2018-12-30T07:18:51.687Z,1009.25
2018-12-30T07:19:51.708Z,1009.30
2018-12-30T07:20:51.694Z,1009.30
2018-12-30T07:21:51.655Z,1009.22
2018-12-30T07:22:51.664Z,1009.28
2018-12-30T07:23:51.632Z,1009.31
2018-12-30T07:24:51.621Z,1009.39
2018-12-30T07:25:51.630Z,1009.37
2018-12-30T07:26:51.619Z,1009.33
2018-12-30T07:27:51.590Z,1009.35
2018-12-30T07:28:51.614Z,1009.39
2018-12-30T07:29:51.593Z,1009.44
2018-12-30T07:30:51.559Z,1009.45
2018-12-30T07:31:51.543Z,1009.42
2018-12-30T07:32:51.562Z,1009.42
2018-12-30T07:33:51.523Z,1009.47
2018-12-30T07:34:51.508Z,1009.44
2018-12-30T07:35:51.502Z,1009.48
2018-12-30T07:36:51.489Z,1009.46
2018-12-30T07:37:51.502Z,1009.51
2018-12-30T07:38:51.464Z,1009.54
2018-12-30T07:39:51.500Z,1009.50
2018-12-30T07:40:51.441Z,1009.51
2018-12-30T07:41:51.468Z,1009.52
2018-12-30T07:42:51.425Z,1009.58
2018-12-30T07:43:51.434Z,1009.61
2018-12-30T07:44:51.400Z,1009.58
2018-12-30T07:45:51.392Z,1009.61
2018-12-30T07:46:51.418Z,1009.62
2018-12-30T07:47:51.516Z,1009.60
2018-12-30T07:48:51.353Z,1009.70
2018-12-30T07:49:51.342Z,1009.69
2018-12-30T07:50:51.375Z,1009.73
2018-12-30T07:51:51.349Z,1009.65
2018-12-30T07:52:51.310Z,1009.73
2018-12-30T07:53:51.301Z,1009.67
2018-12-30T07:54:51.287Z,1009.66
2018-12-30T07:55:51.306Z,1009.61
2018-12-30T07:56:51.271Z,1009.65
2018-12-30T07:57:51.256Z,1009.65
2018-12-30T07:58:51.243Z,1009.66
2018-12-30T07:59:51.232Z,1009.67
2018-12-30T08:00:51.248Z,1009.77
2018-12-30T08:01:51.232Z,1009.68
2018-12-30T08:02:51.203Z,1009.69
2018-12-30T08:03:51.188Z,1009.69
2018-12-30T08:04:51.179Z,1009.72
2018-12-30T08:05:51.204Z,1009.76
2018-12-30T08:06:51.156Z,1009.75
2018-12-30T08:07:51.148Z,1009.74
2018-12-30T08:08:51.142Z,1009.71
2018-12-30T08:09:51.121Z,1009.70
2018-12-30T08:10:51.161Z,1009.73
2018-12-30T08:11:51.099Z,1009.69
2018-12-30T08:12:51.089Z,1009.74
2018-12-30T08:13:51.082Z,1009.84
2018-12-30T08:14:51.081Z,1009.80
2018-12-30T08:15:51.088Z,1009.76
2018-12-30T08:16:51.044Z,1009.76
2018-12-30T08:17:51.061Z,1009.76
2018-12-30T08:18:51.022Z,1009.76
2018-12-30T08:19:51.014Z,1009.80
2018-12-30T08:20:51.019Z,1009.82
2018-12-30T08:21:50.990Z,1009.77
2018-12-30T08:22:51.011Z,1009.69
2018-12-30T08:23:50.976Z,1009.79
2018-12-30T08:24:50.955Z,1009.78
2018-12-30T08:25:50.947Z,1009.73
2018-12-30T08:26:50.968Z,1009.79
2018-12-30T08:27:50.961Z,1009.76
2018-12-30T08:28:50.915Z,1009.77
2018-12-30T08:29:50.904Z,1009.77
2018-12-30T08:30:50.890Z,1009.78
2018-12-30T08:31:50.879Z,1009.85
2018-12-30T08:32:50.897Z,1009.89
2018-12-30T08:33:50.882Z,1009.92
2018-12-30T08:34:50.847Z,1009.93
2018-12-30T08:35:50.836Z,1009.97
2018-12-30T08:36:50.824Z,1009.93
2018-12-30T08:37:50.841Z,1009.98
2018-12-30T08:38:50.842Z,1010.02
2018-12-30T08:39:50.791Z,1010.07
2018-12-30T08:40:50.781Z,1010.08
2018-12-30T08:41:50.768Z,1010.06
2018-12-30T08:42:50.759Z,1010.08
2018-12-30T08:43:50.770Z,1010.10
2018-12-30T08:44:50.741Z,1010.15
2018-12-30T08:45:50.725Z,1010.14
2018-12-30T08:46:50.713Z,1010.19
2018-12-30T08:47:50.702Z,1010.29
2018-12-30T08:48:50.723Z,1010.25
2018-12-30T08:49:50.680Z,1010.22
2018-12-30T08:50:50.711Z,1010.29
2018-12-30T08:51:50.661Z,1010.26
2018-12-30T08:52:50.650Z,1010.35
2018-12-30T08:53:50.666Z,1010.30
2018-12-30T08:54:50.627Z,1010.36
2018-12-30T08:55:50.613Z,1010.37
2018-12-30T08:56:50.651Z,1010.34
2018-12-30T08:57:50.591Z,1010.42
2018-12-30T08:58:50.582Z,1010.45
2018-12-30T08:59:50.573Z,1010.47
2018-12-30T09:00:50.586Z,1010.41
2018-12-30T09:01:50.548Z,1010.43
2018-12-30T09:02:50.548Z,1010.34
2018-12-30T09:03:50.528Z,1010.34
2018-12-30T09:04:50.540Z,1010.33
2018-12-30T09:05:50.512Z,1010.41
2018-12-30T09:06:52.098Z,1010.37
2018-12-30T09:07:50.484Z,1010.44
2018-12-30T09:08:50.492Z,1010.47
2018-12-30T09:09:50.486Z,1010.44
2018-12-30T09:10:50.449Z,1010.46
2018-12-30T09:11:50.467Z,1010.46
2018-12-30T09:12:50.429Z,1010.44
2018-12-30T09:13:50.416Z,1010.39
2018-12-30T09:14:50.422Z,1010.45
2018-12-30T09:15:50.416Z,1010.52
2018-12-30T09:16:50.416Z,1010.47
2018-12-30T09:17:50.371Z,1010.49
2018-12-30T09:18:50.363Z,1010.48
2018-12-30T09:19:50.350Z,1010.51
2018-12-30T09:20:50.358Z,1010.54
2018-12-30T09:21:50.353Z,1010.59
2018-12-30T09:22:50.316Z,1010.61
2018-12-30T09:23:50.305Z,1010.60
2018-12-30T09:24:50.294Z,1010.57
2018-12-30T09:25:50.310Z,1010.59
2018-12-30T09:26:50.297Z,1010.62
2018-12-30T09:27:50.262Z,1010.51
2018-12-30T09:28:50.250Z,1010.52
2018-12-30T09:29:50.271Z,1010.55
2018-12-30T09:30:50.232Z,1010.60
2018-12-30T09:31:50.215Z,1010.57
2018-12-30T09:32:50.211Z,1010.63
2018-12-30T09:33:50.194Z,1010.66
2018-12-30T09:34:50.199Z,1010.65
2018-12-30T09:35:50.173Z,1010.60
2018-12-30T09:36:50.166Z,1010.62
2018-12-30T09:37:50.156Z,1010.65
2018-12-30T09:38:50.176Z,1010.65
2018-12-30T09:39:50.130Z,1010.67
2018-12-30T09:40:50.121Z,1010.63
2018-12-30T09:41:50.139Z,1010.67
2018-12-30T09:42:50.095Z,1010.62
2018-12-30T09:43:50.089Z,1010.62
2018-12-30T09:44:50.080Z,1010.64
2018-12-30T09:45:50.063Z,1010.71
2018-12-30T09:46:50.076Z,1010.70
2018-12-30T09:47:50.073Z,1010.71
2018-12-30T09:48:50.031Z,1010.66
2018-12-30T09:49:50.023Z,1010.68
2018-12-30T09:50:50.008Z,1010.69
2018-12-30T09:51:50.036Z,1010.70
2018-12-30T09:52:50.010Z,1010.68
2018-12-30T09:53:49.978Z,1010.67
2018-12-30T09:54:49.963Z,1010.68
2018-12-30T09:55:49.954Z,1010.65
2018-12-30T09:56:49.967Z,1010.71
2018-12-30T09:57:49.942Z,1010.76
2018-12-30T09:58:49.947Z,1010.69
2018-12-30T09:59:49.910Z,1010.78
2018-12-30T10:00:49.899Z,1010.80
2018-12-30T10:01:49.891Z,1010.90
2018-12-30T10:02:49.898Z,1010.88
2018-12-30T10:03:49.873Z,1010.85
2018-12-30T10:04:49.853Z,1010.91
2018-12-30T10:05:49.866Z,1010.87
2018-12-30T10:06:49.834Z,1010.79
2018-12-30T10:07:49.819Z,1010.80
2018-12-30T10:08:49.832Z,1010.86
2018-12-30T10:09:49.805Z,1010.90
2018-12-30T10:10:49.815Z,1010.79
2018-12-30T10:11:49.803Z,1010.82
2018-12-30T10:12:49.763Z,1010.80
2018-12-30T10:13:49.754Z,1010.87
2018-12-30T10:14:49.766Z,1010.87
2018-12-30T10:15:49.765Z,1010.90
2018-12-30T10:16:49.720Z,1010.91
2018-12-30T10:17:49.709Z,1010.91
2018-12-30T10:18:49.697Z,1010.94
2018-12-30T10:19:49.711Z,1010.92
2018-12-30T10:20:49.683Z,1010.93
2018-12-30T10:21:49.672Z,1010.94
2018-12-30T10:22:49.654Z,1010.96
2018-12-30T10:23:53.087Z,1010.92
2018-12-30T10:24:49.657Z,1010.97
2018-12-30T10:25:49.621Z,1010.98
2018-12-30T10:26:49.611Z,1011.02
2018-12-30T10:27:49.621Z,1010.99
2018-12-30T10:28:49.617Z,1010.95
2018-12-30T10:29:49.577Z,1010.88
2018-12-30T10:30:49.568Z,1010.87
2018-12-30T10:31:49.557Z,1010.85
2018-12-30T10:32:49.543Z,1010.88
2018-12-30T10:33:49.569Z,1010.88
2018-12-30T10:34:49.548Z,1010.89
2018-12-30T10:35:49.511Z,1010.87
2018-12-30T10:36:49.502Z,1010.89
2018-12-30T10:37:49.488Z,1010.89
2018-12-30T10:38:49.478Z,1010.87
2018-12-30T10:39:49.507Z,1010.92
2018-12-30T10:40:49.483Z,1010.93
2018-12-30T10:41:49.445Z,1010.94
2018-12-30T10:42:49.485Z,1010.94
2018-12-30T10:43:49.423Z,1010.96
2018-12-30T10:44:49.411Z,1011.02
2018-12-30T10:45:49.406Z,1011.05
2018-12-30T10:46:49.389Z,1011.05
2018-12-30T10:47:49.405Z,1011.04
2018-12-30T10:48:49.378Z,1011.04
2018-12-30T10:49:49.359Z,1011.08
2018-12-30T10:50:49.348Z,1011.05
2018-12-30T10:51:49.337Z,1011.15
2018-12-30T10:52:49.348Z,1011.10
2018-12-30T10:53:49.351Z,1011.05
2018-12-30T10:54:49.305Z,1011.11
2018-12-30T10:55:49.297Z,1011.12
2018-12-30T10:56:49.287Z,1011.08
2018-12-30T10:57:49.298Z,1011.05
2018-12-30T10:58:49.296Z,1010.98
2018-12-30T10:59:49.264Z,1011.01
2018-12-30T11:00:49.235Z,1010.95
2018-12-30T11:01:49.230Z,1010.89
2018-12-30T11:02:49.226Z,1010.92
2018-12-30T11:03:49.227Z,1010.92
2018-12-30T11:04:49.191Z,1010.86
2018-12-30T11:05:49.223Z,1010.81
2018-12-30T11:06:49.169Z,1010.88
2018-12-30T11:07:49.160Z,1010.90
2018-12-30T11:08:49.147Z,1010.88
2018-12-30T11:09:49.138Z,1010.86
2018-12-30T11:10:49.175Z,1010.82
2018-12-30T11:11:49.173Z,1010.82
2018-12-30T11:12:49.106Z,1010.82
2018-12-30T11:13:49.488Z,1010.76
2018-12-30T11:14:49.093Z,1010.71
2018-12-30T11:15:49.093Z,1010.63
2018-12-30T11:16:49.061Z,1010.64
2018-12-30T11:17:49.048Z,1010.68
2018-12-30T11:18:49.034Z,1010.69
2018-12-30T11:19:49.070Z,1010.69
2018-12-30T11:20:49.014Z,1010.56
2018-12-30T11:21:49.006Z,1010.50
2018-12-30T11:22:48.996Z,1010.48
2018-12-30T11:23:48.986Z,1010.53
2018-12-30T11:24:48.993Z,1010.63
2018-12-30T11:25:48.988Z,1010.58
2018-12-30T11:26:48.991Z,1010.57
2018-12-30T11:27:48.944Z,1010.54
2018-12-30T11:28:48.922Z,1010.54
2018-12-30T11:29:48.918Z,1010.54
2018-12-30T11:30:48.950Z,1010.56
2018-12-30T11:31:48.892Z,1010.49
2018-12-30T11:32:48.880Z,1010.46
2018-12-30T11:33:48.933Z,1010.48
2018-12-30T11:34:48.894Z,1010.48
2018-12-30T11:35:48.854Z,1010.51
2018-12-30T11:36:48.861Z,1010.43
2018-12-30T11:37:49.393Z,1010.48
2018-12-30T11:38:48.859Z,1010.45
2018-12-30T11:39:48.842Z,1010.39
2018-12-30T11:40:48.793Z,1010.45
2018-12-30T11:41:48.781Z,1010.38
2018-12-30T11:42:48.769Z,1010.40
2018-12-30T11:43:48.789Z,1010.39
2018-12-30T11:44:48.745Z,1010.37
2018-12-30T11:45:48.763Z,1010.42
2018-12-30T11:46:48.761Z,1010.40
2018-12-30T11:47:48.711Z,1010.43
2018-12-30T11:48:48.703Z,1010.44
2018-12-30T11:49:48.720Z,1010.45
2018-12-30T11:50:48.725Z,1010.47
2018-12-30T11:51:48.699Z,1010.47
2018-12-30T11:52:48.684Z,1010.45
2018-12-30T11:53:48.648Z,1010.46
2018-12-30T11:54:48.637Z,1010.49
2018-12-30T11:55:48.713Z,1010.51
2018-12-30T11:56:48.613Z,1010.52
2018-12-30T11:57:48.601Z,1010.51
2018-12-30T11:58:48.715Z,1010.51
2018-12-30T11:59:48.577Z,1010.53
2018-12-30T12:00:48.595Z,1010.54
2018-12-30T12:01:48.570Z,1010.54
2018-12-30T12:02:48.585Z,1010.49
2018-12-30T12:03:48.537Z,1010.54
2018-12-30T12:04:48.550Z,1010.58
2018-12-30T12:05:48.526Z,1010.55